createdAt,value
2022-11-22T00:01:10.206Z,98375.28
2022-11-22T00:03:36.800Z,98381.31
2022-11-22T00:06:03.449Z,98386.56
2022-11-22T00:08:30.195Z,98376.59
2022-11-22T00:10:56.884Z,98383.81
2022-11-22T00:13:23.486Z,98379.00
2022-11-22T00:16:00.541Z,98382.63
2022-11-22T00:18:27.636Z,98381.47
2022-11-22T00:20:54.235Z,98381.47
2022-11-22T00:23:20.897Z,98379.00
2022-11-22T00:25:47.866Z,98377.47
2022-11-22T00:28:14.508Z,98377.47
2022-11-22T00:30:41.162Z,98383.09
2022-11-22T00:33:07.854Z,98379.06
2022-11-22T00:35:34.617Z,98376.66
2022-11-22T00:38:01.341Z,98375.47
2022-11-22T00:40:34.233Z,98367.03
2022-11-22T00:43:00.815Z,98363.84
2022-11-22T00:45:27.445Z,98367.03
2022-11-22T00:47:54.102Z,98367.84
2022-11-22T00:50:20.884Z,98369.03
2022-11-22T00:52:47.527Z,98365.41
2022-11-22T00:55:14.169Z,98368.22
2022-11-22T00:57:40.751Z,98355.38
2022-11-22T01:00:07.892Z,98361.34
2022-11-22T01:02:34.598Z,98353.31
2022-11-22T01:05:01.220Z,98346.06
2022-11-22T01:07:27.939Z,98350.06
2022-11-22T01:09:54.576Z,98348.84
2022-11-22T01:12:21.255Z,98359.63
2022-11-22T01:14:47.870Z,98356.38
2022-11-22T01:17:14.755Z,98354.75
2022-11-22T01:19:41.494Z,98357.94
2022-11-22T01:22:08.140Z,98358.75
2022-11-22T01:24:34.768Z,98357.88
2022-11-22T01:27:01.528Z,98361.06
2022-11-22T01:29:28.461Z,98376.63
2022-11-22T01:31:55.380Z,98368.94
2022-11-22T01:34:22.024Z,98354.50
2022-11-22T01:36:48.659Z,98356.03
2022-11-22T01:39:15.432Z,98363.16
2022-11-22T01:41:42.111Z,98365.09
2022-11-22T01:44:18.746Z,98363.78
2022-11-22T01:46:45.547Z,98362.53
2022-11-22T01:49:14.531Z,98362.91
2022-11-22T01:51:42.568Z,98365.25
2022-11-22T01:54:16.154Z,98359.53
2022-11-22T01:56:44.799Z,98359.53
2022-11-22T01:59:14.692Z,98354.28
2022-11-22T02:01:41.489Z,98353.09
2022-11-22T02:04:10.047Z,98357.03
2022-11-22T02:06:48.624Z,98364.56
2022-11-22T02:09:16.097Z,98359.63
2022-11-22T02:11:46.969Z,98352.78
2022-11-22T02:14:14.065Z,98355.88
2022-11-22T02:16:42.494Z,98356.69
2022-11-22T02:19:41.604Z,98358.69
2022-11-22T02:22:26.854Z,98358.16
2022-11-22T02:24:59.916Z,98366.97
2022-11-22T02:27:26.625Z,98366.88
2022-11-22T02:29:53.296Z,98365.34
2022-11-22T02:32:20.076Z,98366.97
2022-11-22T02:34:47.999Z,98358.78
2022-11-22T02:37:29.029Z,98362.31
2022-11-22T02:40:00.638Z,98361.75
2022-11-22T02:42:29.218Z,98358.09
2022-11-22T02:44:55.834Z,98356.84
2022-11-22T02:47:22.522Z,98357.13
2022-11-22T02:49:49.119Z,98351.88
2022-11-22T02:52:18.784Z,98350.19
2022-11-22T02:54:46.013Z,98354.19
2022-11-22T02:57:16.988Z,98348.88
2022-11-22T02:59:43.594Z,98346.91
2022-11-22T03:02:10.254Z,98354.03
2022-11-22T03:04:36.878Z,98351.53
2022-11-22T03:07:04.728Z,98345.63
2022-11-22T03:09:32.514Z,98345.91
2022-11-22T03:11:59.753Z,98340.69
2022-11-22T03:14:26.473Z,98344.22
2022-11-22T03:16:53.137Z,98342.50
2022-11-22T03:19:19.805Z,98335.28
2022-11-22T03:21:46.553Z,98331.69
2022-11-22T03:24:13.365Z,98335.59
2022-11-22T03:26:39.983Z,98345.53
2022-11-22T03:29:06.686Z,98335.13
2022-11-22T03:31:33.523Z,98347.50
2022-11-22T03:34:00.177Z,98347.81
2022-11-22T03:36:26.737Z,98365.00
2022-11-22T03:38:53.342Z,98354.97
2022-11-22T03:41:20.035Z,98348.47
2022-11-22T03:43:46.625Z,98354.34
2022-11-22T03:46:17.630Z,98350.75
2022-11-22T03:48:44.291Z,98354.28
2022-11-22T03:51:11.059Z,98350.59
2022-11-22T03:53:38.124Z,98348.22
2022-11-22T03:56:05.027Z,98340.56
2022-11-22T03:58:32.215Z,98348.50
2022-11-22T04:00:59.392Z,98346.88
2022-11-22T04:03:26.194Z,98348.78
2022-11-22T04:05:52.909Z,98354.75
2022-11-22T04:08:19.530Z,98351.81
2022-11-22T04:10:46.178Z,98349.41
2022-11-22T04:13:12.785Z,98342.91
2022-11-22T04:15:39.368Z,98337.31
2022-11-22T04:18:09.016Z,98344.44
2022-11-22T04:20:54.212Z,98340.81
2022-11-22T04:23:22.121Z,98347.50
2022-11-22T04:25:50.632Z,98347.44
2022-11-22T04:28:18.798Z,98346.25
2022-11-22T04:31:04.027Z,98343.38
2022-11-22T04:33:30.817Z,98340.13
2022-11-22T04:35:57.548Z,98340.03
2022-11-22T04:38:24.367Z,98348.78
2022-11-22T04:40:51.026Z,98355.19
2022-11-22T04:43:46.257Z,98348.34
2022-11-22T04:46:13.296Z,98365.50
2022-11-22T04:48:40.567Z,98363.88
2022-11-22T04:51:26.377Z,98359.81
2022-11-22T04:53:52.974Z,98364.97
2022-11-22T04:56:19.612Z,98362.53
2022-11-22T04:58:46.250Z,98362.06
2022-11-22T05:01:12.939Z,98369.22
2022-11-22T05:03:39.556Z,98359.19
2022-11-22T05:06:06.351Z,98369.22
2022-11-22T05:08:33.099Z,98365.97
2022-11-22T05:11:00.112Z,98365.97
2022-11-22T05:13:34.285Z,98370.66
2022-11-22T05:16:01.910Z,98368.66
2022-11-22T05:18:28.589Z,98367.84
2022-11-22T05:20:55.336Z,98368.59
2022-11-22T05:23:40.948Z,98363.06
2022-11-22T05:26:08.098Z,98374.91
2022-11-22T05:28:35.900Z,98375.06
2022-11-22T05:31:13.132Z,98371.19
2022-11-22T05:33:40.680Z,98372.47
2022-11-22T05:36:08.031Z,98371.72
2022-11-22T05:38:35.735Z,98375.00
2022-11-22T05:41:03.391Z,98369.81
2022-11-22T05:43:30.329Z,98365.50
2022-11-22T05:45:56.906Z,98373.16
2022-11-22T05:48:23.704Z,98372.44
2022-11-22T05:50:50.274Z,98371.72
2022-11-22T05:53:16.993Z,98375.78
2022-11-22T05:55:43.651Z,98377.03
2022-11-22T05:58:10.194Z,98379.56
2022-11-22T06:00:36.814Z,98382.50
2022-11-22T06:03:04.231Z,98381.41
2022-11-22T06:05:31.236Z,98377.50
2022-11-22T06:07:59.664Z,98382.00
2022-11-22T06:10:26.899Z,98385.69
2022-11-22T06:12:53.533Z,98382.63
2022-11-22T06:15:20.199Z,98391.09
2022-11-22T06:17:46.895Z,98387.19
2022-11-22T06:20:13.465Z,98388.09
2022-11-22T06:22:40.089Z,98386.19
2022-11-22T06:25:07.463Z,98392.66
2022-11-22T06:27:34.081Z,98386.31
2022-11-22T06:30:00.793Z,98391.63
2022-11-22T06:32:27.373Z,98397.34
2022-11-22T06:34:53.962Z,98392.63
2022-11-22T06:37:20.529Z,98388.72
2022-11-22T06:39:47.107Z,98395.22
2022-11-22T06:42:13.761Z,98399.72
2022-11-22T06:44:40.442Z,98399.44
2022-11-22T06:47:11.875Z,98408.72
2022-11-22T06:49:38.510Z,98413.97
2022-11-22T06:52:05.434Z,98412.50
2022-11-22T06:54:32.150Z,98416.19
2022-11-22T06:56:58.747Z,98421.88
2022-11-22T06:59:25.406Z,98419.97
2022-11-22T07:01:52.145Z,98420.84
2022-11-22T07:04:18.802Z,98420.09
2022-11-22T07:06:45.907Z,98420.97
2022-11-22T07:09:12.542Z,98419.88
2022-11-22T07:11:39.716Z,98428.34
2022-11-22T07:14:08.671Z,98431.25
2022-11-22T07:16:35.708Z,98433.31
2022-11-22T07:19:02.330Z,98420.97
2022-11-22T07:21:28.948Z,98428.28
2022-11-22T07:23:56.272Z,98422.34
2022-11-22T07:26:23.965Z,98421.59
2022-11-22T07:28:50.662Z,98424.09
2022-11-22T07:31:17.752Z,98426.16
2022-11-22T07:33:44.836Z,98423.41
2022-11-22T07:36:13.231Z,98436.72
2022-11-22T07:38:40.150Z,98425.53
2022-11-22T07:41:07.165Z,98430.44
2022-11-22T07:43:34.287Z,98432.53
2022-11-22T07:46:01.720Z,98452.59
2022-11-22T07:48:28.381Z,98444.88
2022-11-22T07:50:55.340Z,98449.88
2022-11-22T07:53:21.972Z,98448.63
2022-11-22T07:55:48.609Z,98446.63
2022-11-22T07:58:15.209Z,98447.44
2022-11-22T08:00:41.799Z,98440.66
2022-11-22T08:03:09.186Z,98451.47
2022-11-22T08:05:36.031Z,98455.50
2022-11-22T08:08:02.646Z,98453.50
2022-11-22T08:10:29.396Z,98454.28
2022-11-22T08:12:58.691Z,98459.13
2022-11-22T08:15:25.297Z,98463.53
2022-11-22T08:17:52.090Z,98457.91
2022-11-22T08:20:18.689Z,98452.75
2022-11-22T08:22:45.264Z,98453.16
2022-11-22T08:25:14.823Z,98460.88
2022-11-22T08:27:42.699Z,98464.94
2022-11-22T08:30:12.401Z,98468.97
2022-11-22T08:32:39.224Z,98468.69
2022-11-22T08:35:06.184Z,98467.50
2022-11-22T08:37:32.881Z,98472.72
2022-11-22T08:39:59.550Z,98476.81
2022-11-22T08:42:26.283Z,98480.03
2022-11-22T08:44:52.912Z,98482.47
2022-11-22T08:47:22.668Z,98484.09
2022-11-22T08:49:49.270Z,98472.50
2022-11-22T08:52:15.955Z,98473.31
2022-11-22T08:54:42.635Z,98473.69
2022-11-22T08:57:18.422Z,98472.13
2022-11-22T08:59:45.109Z,98474.47
2022-11-22T09:02:11.734Z,98481.72
2022-11-22T09:04:38.392Z,98469.69
2022-11-22T09:10:01.331Z,98486.91
2022-11-22T09:12:27.967Z,98488.91
2022-11-22T09:14:54.517Z,98488.09
2022-11-22T09:17:22.650Z,98500.50
2022-11-22T09:19:49.329Z,98499.69
2022-11-22T09:22:16.044Z,98500.84
2022-11-22T09:24:42.745Z,98500.06
2022-11-22T09:27:19.796Z,98508.09
2022-11-22T09:29:46.439Z,98508.09
2022-11-22T09:32:13.069Z,98520.13
2022-11-22T09:34:39.702Z,98519.78
2022-11-22T09:37:18.713Z,98512.19
2022-11-22T09:39:48.825Z,98515.78
2022-11-22T09:42:34.257Z,98517.41
2022-11-22T09:45:03.691Z,98522.28
2022-11-22T09:47:39.452Z,98517.03
2022-11-22T09:50:15.386Z,98515.47
2022-11-22T09:52:42.128Z,98519.91
2022-11-22T09:55:23.891Z,98523.16
2022-11-22T09:57:57.317Z,98524.00
2022-11-22T10:00:26.174Z,98518.78
2022-11-22T10:03:00.646Z,98511.19
2022-11-22T10:05:33.879Z,98522.88
2022-11-22T10:08:11.186Z,98521.25
2022-11-22T10:10:42.205Z,98530.47
2022-11-22T10:13:17.319Z,98529.66
2022-11-22T10:15:57.288Z,98523.69
2022-11-22T10:18:35.829Z,98528.09
2022-11-22T10:21:02.987Z,98523.69
2022-11-22T10:23:29.627Z,98521.25
2022-11-22T10:26:00.234Z,98521.66
2022-11-22T10:28:32.794Z,98526.50
2022-11-22T10:31:05.538Z,98517.63
2022-11-22T10:33:46.276Z,98524.41
2022-11-22T10:36:21.834Z,98525.59
2022-11-22T10:38:56.097Z,98539.63
2022-11-22T10:41:37.870Z,98523.53
2022-11-22T10:44:07.437Z,98533.94
2022-11-22T10:47:04.484Z,98519.84
2022-11-22T10:49:50.056Z,98529.84
2022-11-22T10:52:19.420Z,98521.78
2022-11-22T10:55:04.741Z,98530.19
2022-11-22T10:57:56.685Z,98534.53
2022-11-22T11:00:27.352Z,98529.31
2022-11-22T11:02:54.104Z,98534.09
2022-11-22T11:05:25.648Z,98540.47
2022-11-22T11:07:56.629Z,98534.03
2022-11-22T11:10:34.554Z,98535.97
2022-11-22T11:13:25.132Z,98536.25
2022-11-22T11:15:56.189Z,98536.19
2022-11-22T11:18:33.114Z,98526.50
2022-11-22T11:20:59.800Z,98526.84
2022-11-22T11:23:26.439Z,98525.97
2022-11-22T11:25:53.210Z,98527.06
2022-11-22T11:28:21.772Z,98524.25
2022-11-22T11:31:21.973Z,98526.25
2022-11-22T11:33:51.400Z,98525.75
2022-11-22T11:36:20.504Z,98525.66
2022-11-22T11:38:48.810Z,98532.34
2022-11-22T11:41:24.853Z,98527.50
2022-11-22T11:43:52.657Z,98520.25
2022-11-22T11:46:21.024Z,98525.78
2022-11-22T11:48:48.732Z,98532.56
2022-11-22T11:51:18.256Z,98527.34
2022-11-22T11:53:53.771Z,98529.28
2022-11-22T11:56:21.996Z,98531.28
2022-11-22T11:58:53.451Z,98529.22
2022-11-22T12:01:21.032Z,98528.41
2022-11-22T12:03:52.024Z,98523.50
2022-11-22T12:06:18.755Z,98537.44
2022-11-22T12:08:48.699Z,98537.03
2022-11-22T12:11:20.895Z,98534.56
2022-11-22T12:16:43.434Z,98527.59
2022-11-22T12:19:25.338Z,98523.56
2022-11-22T12:22:03.721Z,98528.16
2022-11-22T12:24:56.998Z,98530.75
2022-11-22T12:27:28.473Z,98532.03
2022-11-22T12:29:55.154Z,98546.81
2022-11-22T12:32:40.417Z,98550.91
2022-11-22T12:35:33.422Z,98551.38
2022-11-22T12:38:11.755Z,98550.28
2022-11-22T12:40:38.361Z,98556.00
2022-11-22T12:43:08.426Z,98550.09
2022-11-22T12:45:36.995Z,98556.97
2022-11-22T12:48:05.874Z,98546.97
2022-11-22T12:50:50.431Z,98546.69
2022-11-22T12:53:23.159Z,98546.81
2022-11-22T12:55:53.416Z,98548.13
2022-11-22T12:58:20.052Z,98550.22
2022-11-22T13:01:13.042Z,98543.84
2022-11-22T13:03:44.846Z,98546.72
2022-11-22T13:06:11.791Z,98553.59
2022-11-22T13:08:38.688Z,98546.88
2022-11-22T13:11:12.427Z,98541.34
2022-11-22T13:13:47.831Z,98556.28
2022-11-22T13:16:14.992Z,98560.31
2022-11-22T13:18:55.878Z,98559.22
2022-11-22T13:21:27.578Z,98569.34
2022-11-22T13:24:23.667Z,98574.59
2022-11-22T13:26:53.427Z,98572.66
2022-11-22T13:29:25.317Z,98573.91
2022-11-22T13:32:01.055Z,98581.97
2022-11-22T13:34:28.503Z,98588.03
2022-11-22T13:37:01.649Z,98574.81
2022-11-22T13:39:28.758Z,98581.72
2022-11-22T13:41:58.258Z,98582.53
2022-11-22T13:44:24.859Z,98589.78
2022-11-22T13:47:02.388Z,98587.78
2022-11-22T13:49:47.984Z,98590.59
2022-11-22T13:52:15.621Z,98602.59
2022-11-22T13:54:48.157Z,98603.41
2022-11-22T13:57:27.193Z,98605.41
2022-11-22T14:00:15.350Z,98606.63
2022-11-22T14:02:53.525Z,98604.97
2022-11-22T14:05:20.140Z,98606.16
2022-11-22T14:07:50.764Z,98612.94
2022-11-22T14:10:32.746Z,98614.50
2022-11-22T14:12:59.959Z,98631.69
2022-11-22T14:15:45.329Z,98626.06
2022-11-22T14:18:20.945Z,98631.25
2022-11-22T14:21:03.158Z,98636.41
2022-11-22T14:23:35.740Z,98630.72
2022-11-22T14:26:08.121Z,98638.34
2022-11-22T14:28:54.398Z,98639.16
2022-11-22T14:31:23.404Z,98646.69
2022-11-22T14:34:16.163Z,98642.25
2022-11-22T14:36:43.102Z,98651.41
2022-11-22T14:39:33.534Z,98645.34
2022-11-22T14:42:00.756Z,98653.34
2022-11-22T14:44:33.617Z,98657.25
2022-11-22T14:47:20.144Z,98651.53
2022-11-22T14:49:48.540Z,98652.25
2022-11-22T14:52:21.076Z,98661.03
2022-11-22T14:54:49.705Z,98665.41
2022-11-22T14:57:19.253Z,98671.75
2022-11-22T15:00:01.146Z,98671.66
2022-11-22T15:02:47.005Z,98668.75
2022-11-22T15:09:15.083Z,98668.69
2022-11-22T15:09:23.700Z,98674.22
2022-11-22T15:11:27.509Z,98677.03
2022-11-22T15:14:08.884Z,98680.53
2022-11-22T15:59:40.457Z,98750.13
2022-11-22T16:02:19.703Z,98754.19
2022-11-22T16:06:03.489Z,98755.47
2022-11-22T16:07:48.395Z,98756.38
2022-11-22T16:10:26.362Z,98750.38
2022-11-22T16:12:53.289Z,98766.88
2022-11-22T16:15:27.893Z,98780.16
2022-11-22T16:18:20.703Z,98781.44
2022-11-22T16:21:01.727Z,98787.41
2022-11-22T16:23:29.223Z,98776.25
2022-11-22T16:25:57.884Z,98776.66
2022-11-22T16:28:34.899Z,98777.09
2022-11-22T16:31:07.066Z,98786.31
2022-11-22T16:33:34.079Z,98790.75
2022-11-22T16:36:02.520Z,98794.75
2022-11-22T16:38:29.452Z,98799.19
2022-11-22T16:40:57.401Z,98799.53
2022-11-22T16:43:24.937Z,98793.94
2022-11-22T16:45:51.559Z,98804.72
2022-11-22T16:48:31.725Z,98808.69
2022-11-22T16:51:05.653Z,98809.88
2022-11-22T16:53:43.397Z,98809.88
2022-11-22T16:56:18.735Z,98811.03
2022-11-22T16:58:45.801Z,98811.16
2022-11-22T17:01:16.427Z,98826.78
2022-11-22T17:03:45.736Z,98830.88
2022-11-22T17:06:17.736Z,98832.53
2022-11-22T17:08:48.324Z,98835.75
2022-11-22T17:11:15.962Z,98840.22
2022-11-22T17:13:42.723Z,98839.03
2022-11-22T17:16:09.966Z,98837.41
2022-11-22T17:18:37.060Z,98842.66
2022-11-22T17:21:05.405Z,98846.25
2022-11-22T17:23:34.132Z,98856.31
2022-11-22T17:26:00.828Z,98849.06
2022-11-22T17:28:27.423Z,98853.91
2022-11-22T17:30:54.780Z,98851.88
2022-11-22T17:33:21.397Z,98856.72
2022-11-22T17:35:48.018Z,98855.06
2022-11-22T17:38:15.889Z,98862.31
2022-11-22T17:40:42.508Z,98863.50
2022-11-22T17:43:09.690Z,98858.22
2022-11-22T17:45:42.607Z,98864.19
2022-11-22T17:48:10.166Z,98871.84
2022-11-22T17:50:36.784Z,98876.25
2022-11-22T17:53:03.406Z,98883.84
2022-11-22T17:55:42.738Z,98881.59
2022-11-22T17:58:16.808Z,98888.38
2022-11-22T18:00:43.420Z,98888.38
2022-11-22T18:03:10.039Z,98892.38
2022-11-22T18:05:41.065Z,98897.53
2022-11-22T18:08:07.722Z,98896.38
2022-11-22T18:10:35.413Z,98908.78
2022-11-22T18:15:52.161Z,98916.28
2022-11-22T18:18:48.641Z,98911.13
2022-11-22T18:21:14.168Z,98910.66
2022-11-22T18:23:43.576Z,98913.75
2022-11-22T18:29:32.431Z,98925.16
2022-11-22T18:31:54.260Z,98933.00
2022-11-22T18:34:21.974Z,98935.13
2022-11-22T18:36:55.305Z,98941.34
2022-11-22T18:39:24.537Z,98942.50
2022-11-22T18:41:51.101Z,98948.50
2022-11-22T18:44:18.790Z,98952.91
2022-11-22T18:46:45.426Z,98950.84
2022-11-22T18:49:12.098Z,98950.38
2022-11-22T18:51:38.828Z,98961.50
2022-11-22T18:54:05.600Z,98966.28
2022-11-22T18:56:32.604Z,98972.28
2022-11-22T18:58:59.456Z,98985.00
2022-11-22T19:01:26.525Z,98977.22
2022-11-22T19:03:54.074Z,98978.38
2022-11-22T19:06:20.713Z,98975.94
2022-11-22T19:08:47.887Z,98978.19
2022-11-22T19:11:15.830Z,98978.97
2022-11-22T19:13:43.350Z,98985.41
2022-11-22T19:16:13.795Z,98978.53
2022-11-22T19:18:43.085Z,98976.91
2022-11-22T19:21:17.111Z,98980.88
2022-11-22T19:23:43.936Z,98970.84
2022-11-22T19:26:11.703Z,98973.19
2022-11-22T19:28:38.419Z,98974.25
2022-11-22T19:31:09.404Z,98973.44
2022-11-22T19:33:36.388Z,98974.16
2022-11-22T19:36:04.327Z,98972.03
2022-11-22T19:38:30.947Z,98971.91
2022-11-22T19:40:57.651Z,98963.88
2022-11-22T19:43:24.249Z,98971.81
2022-11-22T19:45:50.862Z,98961.75
2022-11-22T19:48:19.221Z,98969.72
2022-11-22T19:50:45.868Z,98971.22
2022-11-22T19:53:12.567Z,98967.16
2022-11-22T19:55:45.161Z,98975.91
2022-11-22T19:58:12.066Z,98970.19
2022-11-22T20:00:38.913Z,98972.53
2022-11-22T20:03:05.538Z,98974.88
2022-11-22T20:05:32.652Z,98968.81
2022-11-22T20:07:59.693Z,98977.94
2022-11-22T20:10:26.374Z,98974.19
2022-11-22T20:12:53.142Z,98983.78
2022-11-22T20:15:20.182Z,98981.69
2022-11-22T20:17:46.870Z,98992.41
2022-11-22T20:20:13.680Z,98987.16
2022-11-22T20:22:40.278Z,99001.53
2022-11-22T20:25:07.187Z,98997.44
2022-11-22T20:27:33.831Z,98995.00
2022-11-22T20:30:01.476Z,98991.72
2022-11-22T20:32:29.185Z,98994.88
2022-11-22T20:34:55.802Z,99001.66
2022-11-22T20:37:22.921Z,98997.56
2022-11-22T20:39:49.519Z,99003.53
2022-11-22T20:45:08.639Z,99010.97
2022-11-22T20:47:35.829Z,99005.03
2022-11-22T20:50:06.598Z,99006.69
2022-11-22T20:52:33.353Z,99003.97
2022-11-22T20:55:04.841Z,99003.97
2022-11-22T20:57:37.524Z,99003.63
2022-11-22T21:00:06.630Z,99007.25
2022-11-22T21:02:36.405Z,99010.53
2022-11-22T21:05:03.196Z,99016.72
2022-11-22T21:07:29.846Z,99021.59
2022-11-22T21:09:56.851Z,99020.09
2022-11-22T21:12:23.803Z,99024.66
2022-11-22T21:14:53.731Z,99025.91
2022-11-22T21:17:41.892Z,99027.66
2022-11-22T21:20:08.003Z,99029.78
2022-11-22T21:22:34.714Z,99037.16
2022-11-22T21:25:01.514Z,99044.03
2022-11-22T21:27:28.377Z,99053.34
2022-11-22T21:29:55.024Z,99053.47
2022-11-22T21:32:22.017Z,99052.78
2022-11-22T21:34:48.917Z,99054.56
2022-11-22T21:37:16.030Z,99051.84
2022-11-22T21:39:42.795Z,99059.56
2022-11-22T21:42:09.618Z,99061.31
2022-11-22T21:44:36.541Z,99059.41
2022-11-22T21:47:05.455Z,99058.72
2022-11-22T21:49:32.137Z,99057.78
2022-11-22T21:51:59.443Z,99053.41
2022-11-22T21:54:27.141Z,99053.19
2022-11-22T21:56:55.567Z,99057.72
2022-11-22T21:59:25.166Z,99062.66
2022-11-22T22:01:51.855Z,99065.91
2022-11-22T22:04:18.538Z,99072.78
2022-11-22T22:06:46.383Z,99075.25
2022-11-22T22:09:13.125Z,99076.53
2022-11-22T22:11:42.062Z,99074.16
2022-11-22T22:14:09.356Z,99071.00
2022-11-22T22:16:36.102Z,99079.06
2022-11-22T22:19:09.312Z,99082.69
2022-11-22T22:21:36.543Z,99077.06
2022-11-22T22:24:04.211Z,99080.69
2022-11-22T22:26:31.787Z,99097.19
2022-11-22T22:28:58.799Z,99082.00
2022-11-22T22:31:27.094Z,99080.34
2022-11-22T22:33:54.665Z,99088.44
2022-11-22T22:36:21.451Z,99078.81
2022-11-22T22:38:48.384Z,99072.03
2022-11-22T22:41:14.979Z,99076.13
2022-11-22T22:43:42.859Z,99079.72
2022-11-22T22:46:12.638Z,99086.63
2022-11-22T22:48:43.935Z,99079.84
2022-11-22T22:51:15.641Z,99082.28
2022-11-22T22:53:42.706Z,99072.34
2022-11-22T22:56:10.127Z,99075.59
2022-11-22T22:58:37.128Z,99071.28
2022-11-22T23:01:08.190Z,99072.44
2022-11-22T23:03:35.207Z,99074.09
2022-11-22T23:06:05.984Z,99074.19
2022-11-22T23:08:32.570Z,99083.06
2022-11-22T23:11:03.126Z,99079.09
2022-11-22T23:13:29.853Z,99082.38
2022-11-22T23:15:58.866Z,99079.22
2022-11-22T23:18:25.666Z,99074.88
2022-11-22T23:20:52.529Z,99080.13
2022-11-22T23:23:19.149Z,99076.97
2022-11-22T23:25:45.798Z,99084.22
2022-11-22T23:28:12.421Z,99083.03
2022-11-22T23:30:38.992Z,99087.50
2022-11-22T23:33:05.582Z,99089.91
2022-11-22T23:35:34.593Z,99080.31
2022-11-22T23:38:01.381Z,99084.78
2022-11-22T23:40:28.015Z,99085.59
2022-11-22T23:42:56.872Z,99086.03
2022-11-22T23:45:23.528Z,99086.03
2022-11-22T23:47:50.954Z,99090.03
2022-11-22T23:50:17.805Z,99088.41
2022-11-22T23:52:44.415Z,99101.28
2022-11-22T23:55:11.325Z,99094.84
2022-11-22T23:57:37.874Z,99092.38
